Time;durP1;ratioP1;P1;durP2;ratioP2;P2;SDS_P1;SDS_P2;PMS_P1;PMS_P2;Temp;Humidity;BMP_temperature;BMP_pressure;BME280_temperature;BME280_humidity;BME280_pressure;Samples;Min_cycle;Max_cycle;Signal;HPM_P1;HPM_P2
2021/04/07 00:01:56;;;;;;;3.60;3.30;;;-1.00;98.60;;;;;;5038743;28;20890;-58
2021/04/07 00:04:22;;;;;;;5.03;3.33;;;-1.00;98.70;;;;;;5039693;28;20439;-58
2021/04/07 00:06:48;;;;;;;3.80;3.40;;;-0.90;98.60;;;;;;5040156;28;20267;-59
2021/04/07 00:09:13;;;;;;;8.53;3.53;;;-0.90;98.40;;;;;;5037735;28;20180;-58
2021/04/07 00:11:39;;;;;;;3.93;3.53;;;-0.90;98.40;;;;;;5040101;28;20531;-58
2021/04/07 00:14:08;;;;;;;6.90;4.00;;;-0.90;98.40;;;;;;5043189;28;20173;-58
2021/04/07 00:16:34;;;;;;;5.83;3.40;;;-0.90;98.50;;;;;;5042743;28;20176;-58
2021/04/07 00:19:00;;;;;;;4.57;3.93;;;-0.90;98.20;;;;;;5040647;28;20449;-59
2021/04/07 00:21:26;;;;;;;3.57;3.27;;;-0.90;98.30;;;;;;5037353;28;20546;-59
2021/04/07 00:23:52;;;;;;;3.07;2.87;;;-0.90;98.30;;;;;;5036180;28;20462;-59
2021/04/07 00:26:18;;;;;;;4.00;2.97;;;-0.90;97.90;;;;;;5037804;28;20444;-58
2021/04/07 00:28:43;;;;;;;4.83;3.67;;;-0.90;97.80;;;;;;5040603;28;20735;-58
2021/04/07 00:31:09;;;;;;;4.13;3.47;;;-0.90;98.10;;;;;;5037054;28;20657;-58
2021/04/07 00:33:35;;;;;;;3.93;3.40;;;-0.90;97.30;;;;;;5037084;28;20205;-58
2021/04/07 00:36:01;;;;;;;7.40;3.70;;;-0.90;97.10;;;;;;5038949;28;21170;-59
2021/04/07 00:38:26;;;;;;;4.17;3.77;;;-0.90;97.70;;;;;;5039103;28;20654;-59
2021/04/07 00:40:52;;;;;;;3.40;3.10;;;-0.90;97.90;;;;;;5036218;28;20616;-58
2021/04/07 00:43:17;;;;;;;5.13;3.17;;;-0.90;97.20;;;;;;5034674;28;20237;-59
2021/04/07 00:45:43;;;;;;;3.13;2.93;;;-1.00;96.40;;;;;;5037673;28;20259;-58
2021/04/07 00:48:09;;;;;;;4.77;3.03;;;-1.00;95.60;;;;;;5036848;28;20252;-58
2021/04/07 00:50:37;;;;;;;4.13;3.67;;;-1.10;95.70;;;;;;5040032;28;20185;-59
2021/04/07 00:53:03;;;;;;;4.20;2.43;;;-1.10;95.50;;;;;;5042770;28;20439;-58
2021/04/07 00:55:36;;;;;;;6.30;3.67;;;-1.10;95.40;;;;;;5058742;28;20476;-58
2021/04/07 00:58:03;;;;;;;4.30;3.53;;;-1.10;95.50;;;;;;5063688;28;20269;-59
2021/04/07 01:00:29;;;;;;;2.80;2.60;;;-1.10;95.80;;;;;;5094093;28;20457;-59
2021/04/07 01:02:57;;;;;;;3.20;3.00;;;-1.00;95.80;;;;;;5091976;28;20440;-59
2021/04/07 01:05:25;;;;;;;2.73;2.53;;;-1.00;95.10;;;;;;5061187;28;20185;-59
2021/04/07 01:07:51;;;;;;;2.80;2.60;;;-1.00;94.60;;;;;;5063277;28;20441;-59
2021/04/07 01:10:17;;;;;;;3.60;2.90;;;-1.00;94.70;;;;;;5041568;28;20823;-59
2021/04/07 01:12:44;;;;;;;2.83;2.63;;;-1.00;94.70;;;;;;5037640;28;20677;-59
2021/04/07 01:15:11;;;;;;;3.80;3.00;;;-1.00;94.90;;;;;;5037733;28;20486;-58
2021/04/07 01:17:38;;;;;;;5.37;3.33;;;-1.10;95.10;;;;;;5034051;28;20450;-58
2021/04/07 01:20:12;;;;;;;5.60;2.97;;;-1.10;96.10;;;;;;5036691;28;20523;-58
2021/04/07 01:22:39;;;;;;;3.83;2.67;;;-1.20;95.60;;;;;;5033440;28;20792;-58
2021/04/07 01:25:09;;;;;;;4.30;3.30;;;-1.20;95.80;;;;;;5038809;28;20852;-58
2021/04/07 01:27:36;;;;;;;2.67;2.47;;;-1.20;95.90;;;;;;5039435;28;20520;-59
2021/04/07 01:30:07;;;;;;;2.50;2.30;;;-1.20;96.40;;;;;;5039259;28;20391;-60
2021/04/07 01:32:35;;;;;;;2.33;2.23;;;-1.20;96.00;;;;;;5039508;28;20520;-58
2021/04/07 01:35:00;;;;;;;4.57;2.63;;;-1.30;96.00;;;;;;5035705;28;20967;-58
2021/04/07 01:37:26;;;;;;;2.83;2.60;;;-1.30;96.30;;;;;;5037164;28;20536;-58
2021/04/07 01:39:51;;;;;;;2.77;2.57;;;-1.30;96.70;;;;;;5041333;28;20196;-58
2021/04/07 01:42:17;;;;;;;4.10;2.67;;;-1.30;96.40;;;;;;5037063;28;20189;-58
2021/04/07 01:44:44;;;;;;;4.70;2.70;;;-1.40;95.50;;;;;;5034365;28;20184;-58
2021/04/07 01:47:12;;;;;;;3.00;2.70;;;-1.40;95.40;;;;;;5033720;28;20653;-58
2021/04/07 01:49:41;;;;;;;4.13;2.67;;;-1.40;95.80;;;;;;5042062;28;20940;-58
2021/04/07 01:52:06;;;;;;;3.23;2.60;;;-1.40;95.90;;;;;;5043647;28;20519;-58
2021/04/07 01:54:34;;;;;;;4.70;2.73;;;-1.40;95.30;;;;;;5040587;28;20935;-58
2021/04/07 01:57:00;;;;;;;4.00;3.10;;;-1.50;94.80;;;;;;5040721;28;20196;-58
2021/04/07 01:59:31;;;;;;;3.63;2.70;;;-1.50;94.60;;;;;;5042908;28;20402;-58
2021/04/07 02:01:58;;;;;;;3.40;2.57;;;-1.50;94.00;;;;;;5042310;28;20403;-58
2021/04/07 02:04:24;;;;;;;4.10;3.10;;;-1.50;94.40;;;;;;5045590;28;20772;-57
2021/04/07 02:06:51;;;;;;;3.13;2.80;;;-1.50;94.50;;;;;;5043053;28;20435;-58
2021/04/07 02:09:17;;;;;;;2.30;2.20;;;-1.50;94.20;;;;;;5041375;28;20909;-59
2021/04/07 02:11:49;;;;;;;3.30;2.23;;;-1.60;94.20;;;;;;5042721;28;20711;-58
2021/04/07 02:14:19;;;;;;;2.23;2.13;;;-1.60;93.50;;;;;;5042427;28;20440;-58
2021/04/07 02:16:52;;;;;;;3.90;2.50;;;-1.60;93.20;;;;;;5039484;28;20458;-58
2021/04/07 02:19:19;;;;;;;3.50;3.20;;;-1.60;93.30;;;;;;5063184;28;20433;-58
2021/04/07 02:21:45;;;;;;;3.60;2.83;;;-1.70;92.90;;;;;;5046144;28;20984;-58
2021/04/07 02:24:11;;;;;;;4.47;3.07;;;-1.70;93.40;;;;;;5041050;28;20402;-59
2021/04/07 02:26:36;;;;;;;2.70;2.50;;;-1.70;93.00;;;;;;5043085;28;20390;-58
2021/04/07 02:29:02;;;;;;;4.70;2.70;;;-1.80;93.30;;;;;;5040945;28;20179;-58
2021/04/07 02:31:28;;;;;;;5.27;2.87;;;-1.80;93.50;;;;;;5040924;28;20214;-58
2021/04/07 02:33:53;;;;;;;3.33;3.03;;;-1.70;93.60;;;;;;5054279;28;20519;-58
2021/04/07 02:36:19;;;;;;;2.97;2.53;;;-1.70;93.60;;;;;;5057128;28;20188;-58
2021/04/07 02:38:45;;;;;;;4.40;2.80;;;-1.80;93.10;;;;;;5053817;28;20224;-58
2021/04/07 02:41:10;;;;;;;3.63;2.73;;;-1.80;93.50;;;;;;5043894;28;20230;-58
2021/04/07 02:43:36;;;;;;;5.00;3.00;;;-1.80;93.90;;;;;;5044223;28;20693;-58
2021/04/07 02:46:04;;;;;;;7.97;2.93;;;-1.80;93.70;;;;;;5042518;28;20245;-58
2021/04/07 02:48:29;;;;;;;4.63;3.00;;;-1.80;93.80;;;;;;5040303;28;20245;-58
2021/04/07 02:50:55;;;;;;;5.00;3.30;;;-1.80;93.70;;;;;;5042816;28;20472;-58
2021/04/07 02:53:21;;;;;;;3.27;2.97;;;-1.80;94.20;;;;;;5045995;28;20184;-58
2021/04/07 02:55:46;;;;;;;4.00;3.20;;;-1.70;94.70;;;;;;5043764;28;20186;-58
2021/04/07 02:58:12;;;;;;;4.47;2.80;;;-1.70;94.40;;;;;;5043053;28;20253;-58
2021/04/07 03:00:38;;;;;;;5.40;3.37;;;-1.70;94.30;;;;;;5042158;28;20222;-58
2021/04/07 03:03:04;;;;;;;5.40;3.40;;;-1.70;94.40;;;;;;5042824;28;20931;-58
2021/04/07 03:05:30;;;;;;;3.47;2.87;;;-1.70;94.10;;;;;;5041074;28;20435;-58
2021/04/07 03:07:55;;;;;;;3.40;3.10;;;-1.70;94.00;;;;;;5045733;28;20453;-58
2021/04/07 03:10:21;;;;;;;3.67;3.20;;;-1.80;93.70;;;;;;5044517;28;20192;-58
2021/04/07 03:12:47;;;;;;;3.67;3.37;;;-1.80;93.70;;;;;;5040833;28;20266;-57
2021/04/07 03:15:12;;;;;;;4.10;3.00;;;-1.90;93.50;;;;;;5041429;28;20568;-58
2021/04/07 03:17:41;;;;;;;4.60;3.23;;;-1.90;93.60;;;;;;5042417;28;20208;-58
2021/04/07 03:20:07;;;;;;;3.23;2.93;;;-1.90;93.60;;;;;;5039004;28;20464;-58
2021/04/07 03:22:34;;;;;;;5.67;3.43;;;-2.00;93.50;;;;;;5041153;28;20431;-58
2021/04/07 03:24:59;;;;;;;3.50;3.20;;;-1.90;93.80;;;;;;5061834;28;20409;-57
2021/04/07 03:27:26;;;;;;;4.60;3.20;;;-1.90;93.80;;;;;;5041173;28;20455;-57
2021/04/07 03:29:52;;;;;;;4.17;3.27;;;-1.90;93.80;;;;;;5044587;28;20212;-58
2021/04/07 03:32:18;;;;;;;3.50;3.17;;;-1.90;93.40;;;;;;5042246;28;20407;-57
2021/04/07 03:34:44;;;;;;;5.30;3.10;;;-1.90;93.50;;;;;;5039354;28;20864;-57
2021/04/07 03:37:10;;;;;;;4.67;3.10;;;-2.00;93.50;;;;;;5078056;22;20565;-55
2021/04/07 03:39:35;;;;;;;3.10;2.80;;;-2.00;93.80;;;;;;5082596;28;20182;-58
2021/04/07 03:42:03;;;;;;;3.87;3.40;;;-1.90;94.10;;;;;;5082682;28;20179;-57
2021/04/07 03:44:29;;;;;;;4.53;3.60;;;-1.90;93.90;;;;;;5081383;28;20741;-57
2021/04/07 03:46:55;;;;;;;5.70;3.63;;;-1.90;94.10;;;;;;5077946;28;20416;-57
2021/04/07 03:49:21;;;;;;;3.73;3.43;;;-1.90;94.20;;;;;;5059644;28;20185;-57
2021/04/07 03:51:47;;;;;;;4.60;3.33;;;-1.90;94.50;;;;;;5063161;28;20189;-56
2021/04/07 03:54:12;;;;;;;4.67;3.73;;;-1.90;94.80;;;;;;5061793;28;20501;-57
2021/04/07 03:56:38;;;;;;;4.33;3.30;;;-1.90;95.00;;;;;;5060698;28;20505;-57
2021/04/07 03:59:04;;;;;;;6.30;3.67;;;-1.90;95.00;;;;;;5059155;28;20199;-57
2021/04/07 04:01:29;;;;;;;8.17;3.97;;;-1.90;95.10;;;;;;5064356;28;20201;-58
2021/04/07 04:03:55;;;;;;;5.13;3.77;;;-1.90;94.90;;;;;;5058701;28;20441;-58
2021/04/07 04:06:21;;;;;;;5.63;3.57;;;-1.80;94.80;;;;;;5055773;28;20181;-57
2021/04/07 04:08:46;;;;;;;4.33;3.70;;;-1.80;94.90;;;;;;5059502;28;20227;-58
2021/04/07 04:11:12;;;;;;;5.17;3.53;;;-1.80;94.80;;;;;;5056368;28;20172;-58
2021/04/07 04:13:38;;;;;;;4.30;3.70;;;-1.80;94.40;;;;;;5057940;28;20216;-64
2021/04/07 04:16:04;;;;;;;4.40;3.60;;;-1.90;94.60;;;;;;5053526;28;20187;-57
2021/04/07 04:18:30;;;;;;;4.37;3.70;;;-1.90;94.90;;;;;;5042111;28;20200;-58
2021/04/07 04:20:55;;;;;;;5.60;4.30;;;-1.90;95.10;;;;;;5057179;28;20490;-56
2021/04/07 04:23:21;;;;;;;21.17;8.33;;;-1.90;95.50;;;;;;5066651;28;20189;-58
2021/04/07 04:25:46;;;;;;;4.30;3.43;;;-1.80;96.00;;;;;;5060740;28;20623;-56
2021/04/07 04:28:12;;;;;;;5.63;3.60;;;-1.80;95.90;;;;;;5045738;28;20511;-57
2021/04/07 04:30:38;;;;;;;5.97;3.60;;;-1.80;95.80;;;;;;5040202;28;20618;-57
2021/04/07 04:33:04;;;;;;;4.67;4.07;;;-1.90;95.60;;;;;;5041412;28;20410;-57
2021/04/07 04:35:30;;;;;;;4.30;3.73;;;-1.90;95.80;;;;;;5041898;28;20208;-57
2021/04/07 04:37:55;;;;;;;4.47;3.83;;;-1.90;95.80;;;;;;5040433;28;20929;-60
2021/04/07 04:40:21;;;;;;;4.73;3.63;;;-1.90;95.70;;;;;;5046740;28;20215;-57
2021/04/07 04:42:48;;;;;;;4.83;3.60;;;-1.90;95.70;;;;;;5058369;28;20168;-60
2021/04/07 04:45:13;;;;;;;4.00;3.33;;;-1.90;95.50;;;;;;5053006;28;20192;-56
2021/04/07 04:47:39;;;;;;;4.80;3.57;;;-1.90;95.60;;;;;;5049953;28;20448;-57
2021/04/07 04:50:07;;;;;;;3.90;3.50;;;-1.90;95.50;;;;;;5044639;28;20785;-56
2021/04/07 04:52:36;;;;;;;4.40;3.70;;;-1.90;95.70;;;;;;5036211;28;20176;-57
2021/04/07 04:55:05;;;;;;;5.60;3.93;;;-1.90;95.90;;;;;;5043192;28;20404;-56
2021/04/07 04:57:32;;;;;;;4.00;3.57;;;-1.90;96.30;;;;;;5036622;28;20439;-55
2021/04/07 04:59:57;;;;;;;4.03;3.67;;;-1.80;96.00;;;;;;5039239;28;20462;-56
2021/04/07 05:02:26;;;;;;;4.97;4.07;;;-1.80;95.70;;;;;;5045205;28;20438;-56
2021/04/07 05:04:51;;;;;;;5.27;3.83;;;-1.80;95.70;;;;;;5047599;28;20631;-60
2021/04/07 05:07:17;;;;;;;5.30;3.83;;;-1.80;95.80;;;;;;5042872;28;20427;-55
2021/04/07 05:09:42;;;;;;;5.43;3.90;;;-1.90;95.50;;;;;;5038714;28;20305;-55
2021/04/07 05:12:08;;;;;;;4.93;3.73;;;-1.90;95.60;;;;;;5041857;28;20178;-55
2021/04/07 05:14:34;;;;;;;5.07;3.60;;;-1.90;95.50;;;;;;5043628;28;20191;-54
2021/04/07 05:17:00;;;;;;;5.77;4.30;;;-1.80;95.60;;;;;;5039126;28;20437;-55
2021/04/07 05:19:27;;;;;;;4.23;3.70;;;-1.90;95.30;;;;;;5040018;28;20184;-56
2021/04/07 05:21:52;;;;;;;3.50;3.20;;;-1.90;95.10;;;;;;5039212;28;20516;-54
2021/04/07 05:24:18;;;;;;;5.03;4.03;;;-1.90;95.50;;;;;;5045588;28;21176;-56
2021/04/07 05:26:43;;;;;;;4.67;3.70;;;-1.90;95.60;;;;;;5040292;28;20184;-53
2021/04/07 05:29:09;;;;;;;6.80;3.57;;;-1.90;96.30;;;;;;5038390;28;20246;-56
2021/04/07 05:31:35;;;;;;;7.30;4.30;;;-1.90;96.80;;;;;;5044321;28;20191;-55
2021/04/07 05:34:01;;;;;;;6.47;4.20;;;-1.90;96.70;;;;;;5045832;28;20184;-56
2021/04/07 05:36:27;;;;;;;5.90;3.93;;;-1.80;96.60;;;;;;5061928;28;20421;-56
2021/04/07 05:38:52;;;;;;;5.70;4.40;;;-1.80;96.50;;;;;;5063518;28;20234;-56
2021/04/07 05:41:19;;;;;;;10.10;3.80;;;-1.70;96.00;;;;;;5062766;28;20472;-55
2021/04/07 05:43:45;;;;;;;11.73;4.20;;;-1.70;95.50;;;;;;5058444;28;20181;-59
2021/04/07 05:46:12;;;;;;;4.30;3.47;;;-1.70;95.50;;;;;;5051492;28;20779;-56
2021/04/07 05:48:38;;;;;;;4.40;4.00;;;-1.70;94.90;;;;;;5038621;28;20193;-56
2021/04/07 05:51:03;;;;;;;4.23;3.70;;;-1.70;95.10;;;;;;5038882;28;20453;-55
2021/04/07 05:53:30;;;;;;;8.93;4.13;;;-1.60;94.90;;;;;;5041473;28;20415;-55
2021/04/07 05:55:56;;;;;;;3.40;3.10;;;-1.60;94.10;;;;;;5041858;28;20180;-54
2021/04/07 05:58:24;;;;;;;4.10;3.43;;;-1.70;93.30;;;;;;5044933;28;20478;-56
2021/04/07 06:00:50;;;;;;;4.67;3.60;;;-1.70;93.50;;;;;;5056721;28;21239;-56
2021/04/07 06:03:17;;;;;;;6.20;3.50;;;-1.80;93.70;;;;;;5055988;28;20415;-55
2021/04/07 06:05:45;;;;;;;3.80;3.13;;;-1.80;93.20;;;;;;5058447;28;20413;-55
2021/04/07 06:08:12;;;;;;;3.57;3.23;;;-1.80;93.00;;;;;;5059649;28;20469;-55
2021/04/07 06:10:41;;;;;;;3.23;2.93;;;-1.80;92.50;;;;;;5056901;28;20415;-56
2021/04/07 06:13:07;;;;;;;3.23;2.90;;;-1.80;92.60;;;;;;5046614;28;20431;-55
2021/04/07 06:15:33;;;;;;;6.33;2.93;;;-1.70;92.60;;;;;;5041092;28;20430;-56
2021/04/07 06:18:03;;;;;;;3.20;2.90;;;-1.60;92.90;;;;;;5050898;28;20535;-54
2021/04/07 06:20:41;;;;;;;5.20;3.63;;;-1.60;93.50;;;;;;5059851;28;20290;-56
2021/04/07 06:23:07;;;;;;;5.20;3.13;;;-1.40;93.00;;;;;;5038173;28;20429;-55
2021/04/07 06:25:34;;;;;;;3.40;3.10;;;-1.30;92.20;;;;;;5036650;28;21132;-57
2021/04/07 06:28:01;;;;;;;4.10;3.00;;;-1.40;91.30;;;;;;5053981;28;20450;-56
2021/04/07 06:33:27;;;;;;;4.57;3.27;;;-1.40;91.30;;;;;;5030413;28;20435;-56
2021/04/07 06:35:57;;;;;;;5.77;3.37;;;-1.30;91.60;;;;;;5038840;28;20434;-57
2021/04/07 06:38:26;;;;;;;4.20;2.90;;;-1.30;91.00;;;;;;5047276;28;20474;-59
2021/04/07 06:40:53;;;;;;;6.30;3.00;;;-1.30;90.30;;;;;;5048592;28;20464;-57
2021/04/07 06:43:21;;;;;;;3.77;3.33;;;-1.30;91.00;;;;;;5045517;28;20405;-57
2021/04/07 06:45:47;;;;;;;4.00;3.37;;;-1.30;91.30;;;;;;5049102;28;20723;-57
2021/04/07 06:48:15;;;;;;;3.13;2.87;;;-1.20;90.80;;;;;;5048187;28;20453;-54
2021/04/07 06:50:42;;;;;;;7.00;3.43;;;-1.20;90.80;;;;;;5042552;28;20555;-56
2021/04/07 06:53:09;;;;;;;5.60;3.20;;;-1.30;91.00;;;;;;5033229;28;20620;-57
2021/04/07 06:55:36;;;;;;;3.50;3.13;;;-1.20;91.50;;;;;;5043131;28;20442;-56
2021/04/07 06:58:04;;;;;;;7.10;3.70;;;-1.00;91.00;;;;;;5034394;28;20958;-55
2021/04/07 07:00:31;;;;;;;4.93;3.33;;;-1.00;90.90;;;;;;5049688;28;20447;-56
2021/04/07 07:03:03;;;;;;;4.60;3.30;;;-1.00;90.60;;;;;;5047779;28;20470;-55
2021/04/07 07:05:30;;;;;;;4.90;3.57;;;-0.90;88.30;;;;;;5051957;28;20913;-55
2021/04/07 07:08:00;;;;;;;6.83;2.80;;;-0.90;86.70;;;;;;5041840;28;20417;-56
2021/04/07 07:10:42;;;;;;;8.00;3.30;;;-0.80;87.80;;;;;;5045219;28;20422;-56
2021/04/07 07:13:10;;;;;;;4.23;3.23;;;-0.70;86.80;;;;;;5073096;28;20540;-55
2021/04/07 07:15:37;;;;;;;4.80;2.93;;;-0.70;85.40;;;;;;5078546;28;20401;-56
2021/04/07 07:18:04;;;;;;;3.80;3.10;;;-0.70;83.70;;;;;;5055780;28;20454;-57
2021/04/07 07:20:35;;;;;;;3.87;3.20;;;-0.70;84.70;;;;;;5047669;28;20437;-54
2021/04/07 07:23:01;;;;;;;3.13;2.93;;;-0.60;85.50;;;;;;5052717;28;20789;-56
2021/04/07 07:25:27;;;;;;;5.23;2.50;;;-0.40;82.80;;;;;;5058299;28;20480;-56
2021/04/07 07:28:04;;;;;;;7.63;3.50;;;-0.20;83.10;;;;;;5055332;28;20448;-57
2021/04/07 07:30:48;;;;;;;3.53;2.63;;;-0.30;73.50;;;;;;5039784;28;20690;-56
2021/04/07 07:33:19;;;;;;;9.00;2.90;;;-0.30;77.10;;;;;;5043600;28;20429;-57
2021/04/07 07:35:47;;;;;;;7.10;3.07;;;-0.10;79.00;;;;;;5045773;28;20509;-56
2021/04/07 07:38:21;;;;;;;3.40;2.60;;;0.00;78.10;;;;;;5037743;28;20451;-56
2021/04/07 07:40:47;;;;;;;5.00;2.90;;;-0.10;76.60;;;;;;5039429;28;20819;-55
2021/04/07 07:43:13;;;;;;;2.47;2.27;;;-0.20;72.90;;;;;;5048343;28;20433;-56
2021/04/07 07:45:40;;;;;;;5.40;3.07;;;-0.40;74.50;;;;;;5055896;28;20914;-55
2021/04/07 07:48:13;;;;;;;4.30;2.50;;;-0.40;73.70;;;;;;5049921;28;20442;-56
2021/04/07 07:50:42;;;;;;;3.00;2.17;;;-0.40;72.50;;;;;;5049200;28;20796;-56
2021/04/07 07:53:21;;;;;;;2.80;2.60;;;-0.50;70.90;;;;;;5049517;28;20439;-56
2021/04/07 07:55:51;;;;;;;7.23;2.93;;;-0.40;71.90;;;;;;5057270;28;20427;-56
2021/04/07 07:58:17;;;;;;;4.13;2.50;;;-0.30;74.40;;;;;;5061124;28;20475;-56
2021/04/07 08:00:44;;;;;;;2.70;2.30;;;-0.20;74.60;;;;;;5057704;28;20461;-55
2021/04/07 08:03:14;;;;;;;6.80;2.57;;;-0.20;68.50;;;;;;5047714;28;20452;-57
2021/04/07 08:05:42;;;;;;;4.50;2.60;;;-0.20;68.70;;;;;;5049345;28;20522;-56
2021/04/07 08:08:08;;;;;;;1.73;1.63;;;-0.10;68.40;;;;;;5047587;28;20887;-56
2021/04/07 08:10:36;;;;;;;5.47;2.20;;;0.00;65.70;;;;;;5045004;28;20432;-55
2021/04/07 08:13:03;;;;;;;5.30;2.40;;;0.00;62.70;;;;;;5061546;28;20395;-63
2021/04/07 08:15:30;;;;;;;2.27;2.10;;;0.00;62.70;;;;;;5050861;28;20498;-56
2021/04/07 08:17:57;;;;;;;3.87;2.13;;;0.10;60.90;;;;;;5041192;28;20547;-55
2021/04/07 08:20:24;;;;;;;3.23;2.30;;;0.20;62.10;;;;;;5041534;28;20483;-56
2021/04/07 08:22:52;;;;;;;3.87;2.20;;;0.30;63.60;;;;;;5051936;28;20425;-57
2021/04/07 08:25:19;;;;;;;8.60;2.00;;;0.60;62.50;;;;;;5047281;28;20432;-56
2021/04/07 08:27:47;;;;;;;6.63;2.80;;;0.80;63.60;;;;;;5040668;28;20882;-57
2021/04/07 08:30:13;;;;;;;2.30;2.00;;;1.00;62.40;;;;;;5038827;28;20427;-56
2021/04/07 08:32:40;;;;;;;6.23;2.20;;;1.20;62.60;;;;;;5054613;28;20443;-56
2021/04/07 08:35:06;;;;;;;4.47;2.97;;;1.40;57.90;;;;;;5071982;28;20431;-57
2021/04/07 08:37:33;;;;;;;1.80;1.70;;;1.40;54.90;;;;;;5070129;28;21163;-57
2021/04/07 08:40:16;;;;;;;1.63;1.53;;;1.40;54.50;;;;;;5080460;28;20823;-57
2021/04/07 08:42:43;;;;;;;4.73;2.33;;;1.40;54.30;;;;;;5067426;28;20695;-57
2021/04/07 08:45:11;;;;;;;6.27;1.90;;;1.40;53.40;;;;;;5064157;28;20416;-56
2021/04/07 08:47:46;;;;;;;4.83;2.00;;;1.40;52.50;;;;;;5069202;28;20443;-56
2021/04/07 08:50:14;;;;;;;5.00;2.20;;;1.40;52.90;;;;;;5068171;28;20450;-60
2021/04/07 08:52:48;;;;;;;3.27;2.17;;;1.40;53.10;;;;;;5068693;28;20458;-59
2021/04/07 08:55:27;;;;;;;3.37;2.20;;;1.30;52.30;;;;;;5060380;28;21787;-55
2021/04/07 08:58:03;;;;;;;2.37;2.17;;;1.30;53.30;;;;;;5069521;28;20480;-57
2021/04/07 09:00:34;;;;;;;2.70;2.50;;;1.40;52.60;;;;;;5074392;28;20452;-57
2021/04/07 09:03:11;;;;;;;2.23;2.10;;;1.30;52.90;;;;;;5067493;28;20446;-56
2021/04/07 09:05:39;;;;;;;2.10;2.00;;;1.20;52.90;;;;;;5066893;28;20443;-59
2021/04/07 09:08:06;;;;;;;3.77;2.30;;;1.20;50.90;;;;;;5068672;28;20461;-57
2021/04/07 09:10:45;;;;;;;2.10;2.00;;;1.30;53.10;;;;;;5079389;28;20438;-57
2021/04/07 09:13:13;;;;;;;2.23;2.00;;;1.60;53.80;;;;;;5066696;28;20462;-57
2021/04/07 09:15:45;;;;;;;3.37;2.30;;;1.90;52.50;;;;;;5070396;28;20454;-57
2021/04/07 09:18:11;;;;;;;4.13;2.20;;;1.80;50.70;;;;;;5066011;28;20427;-56
2021/04/07 09:20:52;;;;;;;2.10;2.00;;;1.80;50.40;;;;;;5070572;28;20498;-57
2021/04/07 09:23:24;;;;;;;4.17;2.40;;;1.80;51.10;;;;;;5065893;28;20161;-57
2021/04/07 09:25:53;;;;;;;4.40;2.27;;;1.90;50.00;;;;;;5065712;28;20432;-57
2021/04/07 09:28:34;;;;;;;2.50;2.30;;;2.00;50.20;;;;;;5067115;28;20426;-58
2021/04/07 09:31:09;;;;;;;2.27;2.17;;;1.80;50.40;;;;;;5063725;28;20439;-57
2021/04/07 09:33:40;;;;;;;4.70;2.40;;;1.80;52.20;;;;;;5062407;28;20464;-56
2021/04/07 09:36:07;;;;;;;5.70;1.97;;;1.90;52.30;;;;;;5067658;28;20473;-58
2021/04/07 09:38:34;;;;;;;2.60;2.40;;;2.00;52.20;;;;;;5066571;22;20570;-60
2021/04/07 09:41:11;;;;;;;2.33;2.00;;;2.10;51.10;;;;;;5039323;28;20470;-59
2021/04/07 09:43:38;;;;;;;3.10;2.47;;;2.10;48.60;;;;;;5035955;28;20527;-59
2021/04/07 09:46:06;;;;;;;2.33;2.13;;;2.20;51.20;;;;;;5043862;28;20445;-59
2021/04/07 09:48:46;;;;;;;6.73;2.50;;;2.20;52.40;;;;;;5040830;28;20461;-59
2021/04/07 09:51:22;;;;;;;3.23;2.30;;;2.10;51.80;;;;;;5076971;28;20432;-58
2021/04/07 09:53:48;;;;;;;2.30;2.00;;;2.00;53.30;;;;;;5040416;28;20436;-61
2021/04/07 09:56:15;;;;;;;5.00;2.70;;;1.80;53.20;;;;;;5041834;28;20441;-61
2021/04/07 09:58:51;;;;;;;4.03;2.67;;;1.80;52.50;;;;;;5042719;28;20454;-59
2021/04/07 10:01:18;;;;;;;3.50;2.30;;;1.90;52.30;;;;;;5039262;28;20990;-60
2021/04/07 10:03:57;;;;;;;2.53;1.93;;;1.90;50.00;;;;;;5042782;28;20439;-59
2021/04/07 10:06:25;;;;;;;2.20;2.00;;;1.80;49.10;;;;;;5036096;28;20413;-60
2021/04/07 10:09:09;;;;;;;2.93;2.40;;;1.60;48.90;;;;;;5039754;28;20447;-59
2021/04/07 10:11:42;;;;;;;2.83;2.27;;;1.50;49.80;;;;;;5044249;28;20496;-60
2021/04/07 10:14:09;;;;;;;2.70;2.13;;;1.40;49.50;;;;;;5045615;28;20817;-60
2021/04/07 10:16:37;;;;;;;2.60;2.40;;;1.40;49.00;;;;;;5049386;28;20456;-60
2021/04/07 10:19:08;;;;;;;2.83;2.40;;;1.50;49.40;;;;;;5047714;28;20509;-61
2021/04/07 10:21:34;;;;;;;3.77;2.53;;;1.60;48.80;;;;;;5050122;28;20454;-60
2021/04/07 10:24:01;;;;;;;2.53;2.33;;;1.70;49.10;;;;;;5045008;28;21077;-59
2021/04/07 10:26:27;;;;;;;4.97;2.43;;;1.80;49.00;;;;;;5049376;28;20466;-60
2021/04/07 10:28:55;;;;;;;3.63;2.43;;;1.90;49.10;;;;;;5046243;28;21148;-60
2021/04/07 10:31:21;;;;;;;2.90;2.17;;;1.90;48.70;;;;;;5047640;28;20522;-59
2021/04/07 10:33:47;;;;;;;3.00;2.63;;;2.00;47.70;;;;;;5042049;28;20515;-59
2021/04/07 10:36:12;;;;;;;2.80;2.17;;;2.10;46.80;;;;;;5042880;28;20206;-63
2021/04/07 10:38:38;;;;;;;3.53;2.27;;;2.20;47.60;;;;;;5046018;28;20692;-60
2021/04/07 10:41:05;;;;;;;4.87;2.33;;;2.50;48.70;;;;;;5050327;28;20236;-60
2021/04/07 10:43:34;;;;;;;4.20;2.63;;;2.70;49.30;;;;;;5046165;28;20204;-59
2021/04/07 10:46:05;;;;;;;4.10;2.73;;;2.90;47.70;;;;;;5045916;28;21173;-59
2021/04/07 10:48:31;;;;;;;2.20;2.00;;;3.00;48.50;;;;;;5046949;28;20465;-60
2021/04/07 10:50:58;;;;;;;2.80;2.57;;;3.00;46.00;;;;;;5048464;28;20581;-59
2021/04/07 10:53:29;;;;;;;2.30;2.10;;;2.80;46.20;;;;;;5047326;28;20523;-60
2021/04/07 10:55:55;;;;;;;5.40;2.93;;;2.60;47.10;;;;;;5046002;28;20436;-60
2021/04/07 10:58:28;;;;;;;5.60;3.93;;;2.60;48.20;;;;;;5049341;28;20449;-60
2021/04/07 11:00:54;;;;;;;2.83;2.47;;;2.70;49.90;;;;;;5050106;28;20254;-60
2021/04/07 11:03:33;;;;;;;2.60;2.20;;;2.70;48.70;;;;;;5051790;28;20430;-60
2021/04/07 11:05:59;;;;;;;4.00;2.70;;;2.80;48.40;;;;;;5044157;28;20427;-59
2021/04/07 11:08:37;;;;;;;3.00;2.70;;;2.80;48.60;;;;;;5040758;28;21101;-60
2021/04/07 11:11:04;;;;;;;3.07;2.43;;;2.80;49.20;;;;;;5056876;28;20461;-61
2021/04/07 11:13:31;;;;;;;3.47;2.90;;;2.90;49.70;;;;;;5047979;28;20432;-61
2021/04/07 11:16:07;;;;;;;3.50;2.87;;;3.00;49.20;;;;;;5044477;28;20431;-61
2021/04/07 11:18:33;;;;;;;3.67;2.63;;;2.80;48.80;;;;;;5046724;28;20439;-61
2021/04/07 11:20:58;;;;;;;4.50;2.60;;;2.60;48.90;;;;;;5046100;28;20456;-61
2021/04/07 11:23:24;;;;;;;3.17;2.80;;;2.40;49.60;;;;;;5064129;28;20189;-62
2021/04/07 11:25:51;;;;;;;2.67;2.47;;;2.30;50.50;;;;;;5066479;28;20169;-60
2021/04/07 11:28:18;;;;;;;6.17;2.80;;;2.20;49.80;;;;;;5065622;28;20193;-58
2021/04/07 11:33:53;;;;;;;2.60;2.40;;;2.70;51.70;;;;;;5047183;28;20433;-57
2021/04/07 11:38:51;;;;;;;2.57;2.30;;;3.90;47.70;;;;;;5060570;28;21030;-58
2021/04/07 11:46:28;;;;;;;4.23;2.87;;;4.00;42.50;;;;;;5045407;28;20440;-57
2021/04/07 11:48:54;;;;;;;8.20;3.07;;;3.90;42.90;;;;;;5044679;28;20955;-58
2021/04/07 11:51:20;;;;;;;5.20;2.97;;;3.70;42.70;;;;;;5043297;28;20184;-58
2021/04/07 11:53:46;;;;;;;4.80;3.00;;;3.70;44.00;;;;;;5040585;28;20442;-58
2021/04/07 11:56:12;;;;;;;2.50;2.30;;;3.60;42.20;;;;;;5043314;28;20202;-58
2021/04/07 11:58:38;;;;;;;3.40;2.33;;;3.50;43.40;;;;;;5037673;28;21069;-59
2021/04/07 12:01:04;;;;;;;2.40;2.20;;;3.40;43.90;;;;;;5043640;28;20581;-58
2021/04/07 12:03:30;;;;;;;2.40;2.10;;;3.50;43.80;;;;;;5044297;28;20202;-58
2021/04/07 12:05:56;;;;;;;3.10;2.30;;;3.60;42.90;;;;;;5042294;28;20207;-57
2021/04/07 12:08:22;;;;;;;2.50;2.20;;;3.80;43.40;;;;;;5045226;28;20474;-57
2021/04/07 12:10:48;;;;;;;5.47;2.30;;;3.90;43.10;;;;;;5044446;28;20809;-58
2021/04/07 12:13:14;;;;;;;3.67;2.13;;;4.00;42.00;;;;;;5046898;28;20460;-58
2021/04/07 12:15:41;;;;;;;2.37;2.17;;;4.10;41.90;;;;;;5039399;28;20444;-57
2021/04/07 12:18:07;;;;;;;5.23;2.73;;;4.20;41.40;;;;;;5041075;28;20196;-58
2021/04/07 12:20:33;;;;;;;2.17;1.97;;;4.20;41.40;;;;;;5039480;28;20467;-57
2021/04/07 12:23:00;;;;;;;4.97;2.27;;;4.30;42.20;;;;;;5045337;28;20520;-58
2021/04/07 12:25:26;;;;;;;4.37;2.37;;;4.30;41.60;;;;;;5045444;28;20886;-58
2021/04/07 12:27:52;;;;;;;2.50;2.00;;;4.10;41.00;;;;;;5038387;28;20519;-56
2021/04/07 12:30:19;;;;;;;3.50;3.00;;;3.90;40.10;;;;;;5045594;28;20445;-57
2021/04/07 12:32:45;;;;;;;2.87;2.53;;;3.80;40.70;;;;;;5051181;28;20179;-56
2021/04/07 12:35:13;;;;;;;2.93;1.60;;;3.60;41.10;;;;;;5047497;28;20444;-57
2021/04/07 12:37:43;;;;;;;2.93;1.93;;;3.50;40.70;;;;;;5045070;28;20549;-59
2021/04/07 12:40:12;;;;;;;2.30;2.10;;;3.30;40.80;;;;;;5045315;28;20442;-58
2021/04/07 12:42:38;;;;;;;2.50;2.30;;;3.20;42.30;;;;;;5042679;28;20979;-59
2021/04/07 12:45:05;;;;;;;14.73;2.60;;;3.10;42.90;;;;;;5042178;28;20436;-56
2021/04/07 12:47:31;;;;;;;5.43;2.93;;;3.10;43.90;;;;;;5040524;28;20224;-59
2021/04/07 12:49:56;;;;;;;3.30;2.70;;;3.20;44.40;;;;;;5035938;28;20426;-58
2021/04/07 12:52:22;;;;;;;2.60;2.37;;;3.40;44.80;;;;;;5041397;28;20175;-59
2021/04/07 12:55:06;;;;;;;6.50;2.30;;;3.60;42.70;;;;;;5040788;28;20658;-58
2021/04/07 12:57:32;;;;;;;6.73;2.67;;;3.70;42.80;;;;;;5043782;28;20198;-57
2021/04/07 12:59:57;;;;;;;4.20;2.17;;;3.70;42.90;;;;;;5044981;28;20455;-59
2021/04/07 13:02:23;;;;;;;5.67;2.90;;;3.70;43.20;;;;;;5037528;28;20176;-59
2021/04/07 13:04:49;;;;;;;3.63;2.10;;;3.50;43.60;;;;;;5034921;28;20262;-59
2021/04/07 13:07:15;;;;;;;3.40;2.77;;;3.40;44.20;;;;;;5039268;28;20180;-58